sensor_id;sensor_type;location;lat;lon;timestamp;temperature;humidity
3406;DHT22;10008;48.682;9.016;2023-09-07T00:00:36;15.70;99.90
3406;DHT22;10008;48.682;9.016;2023-09-07T00:03:02;15.60;99.90
3406;DHT22;10008;48.682;9.016;2023-09-07T00:05:27;15.40;99.90
3406;DHT22;10008;48.682;9.016;2023-09-07T00:07:53;15.30;99.90
3406;DHT22;10008;48.682;9.016;2023-09-07T00:10:19;15.00;99.90
3406;DHT22;10008;48.682;9.016;2023-09-07T00:12:44;15.10;99.90
3406;DHT22;10008;48.682;9.016;2023-09-07T00:15:11;15.20;99.90
3406;DHT22;10008;48.682;9.016;2023-09-07T00:17:37;15.10;99.90
3406;DHT22;10008;48.682;9.016;2023-09-07T00:20:03;15.10;99.90
3406;DHT22;10008;48.682;9.016;2023-09-07T00:22:37;15.10;99.90
3406;DHT22;10008;48.682;9.016;2023-09-07T00:25:03;15.10;99.90
3406;DHT22;10008;48.682;9.016;2023-09-07T00:27:30;15.10;99.90
3406;DHT22;10008;48.682;9.016;2023-09-07T00:29:56;15.00;99.90
3406;DHT22;10008;48.682;9.016;2023-09-07T00:32:21;15.00;99.90
3406;DHT22;10008;48.682;9.016;2023-09-07T00:34:47;14.90;99.90
3406;DHT22;10008;48.682;9.016;2023-09-07T00:37:13;14.90;99.90
3406;DHT22;10008;48.682;9.016;2023-09-07T00:39:39;14.90;99.90
3406;DHT22;10008;48.682;9.016;2023-09-07T00:42:04;14.80;99.90
3406;DHT22;10008;48.682;9.016;2023-09-07T00:44:30;14.90;99.90
3406;DHT22;10008;48.682;9.016;2023-09-07T00:46:59;14.80;99.90
3406;DHT22;10008;48.682;9.016;2023-09-07T00:49:25;14.70;99.90
3406;DHT22;10008;48.682;9.016;2023-09-07T00:51:52;14.80;99.90
3406;DHT22;10008;48.682;9.016;2023-09-07T00:54:19;14.70;99.90
3406;DHT22;10008;48.682;9.016;2023-09-07T00:56:45;14.80;99.90
3406;DHT22;10008;48.682;9.016;2023-09-07T00:59:11;14.70;99.90
3406;DHT22;10008;48.682;9.016;2023-09-07T01:01:38;14.60;99.90
3406;DHT22;10008;48.682;9.016;2023-09-07T01:04:04;14.50;99.90
3406;DHT22;10008;48.682;9.016;2023-09-07T01:06:35;14.60;99.90
3406;DHT22;10008;48.682;9.016;2023-09-07T01:09:16;14.50;99.90
3406;DHT22;10008;48.682;9.016;2023-09-07T01:11:44;14.50;99.90
3406;DHT22;10008;48.682;9.016;2023-09-07T01:14:10;14.50;99.90
3406;DHT22;10008;48.682;9.016;2023-09-07T01:16:36;14.40;99.90
3406;DHT22;10008;48.682;9.016;2023-09-07T01:19:06;14.30;99.90
3406;DHT22;10008;48.682;9.016;2023-09-07T01:21:35;14.60;99.90
3406;DHT22;10008;48.682;9.016;2023-09-07T01:24:04;14.70;99.90
3406;DHT22;10008;48.682;9.016;2023-09-07T01:26:31;14.70;99.90
3406;DHT22;10008;48.682;9.016;2023-09-07T01:28:57;14.80;99.90
3406;DHT22;10008;48.682;9.016;2023-09-07T01:31:23;14.60;99.90
3406;DHT22;10008;48.682;9.016;2023-09-07T01:33:49;14.40;99.90
3406;DHT22;10008;48.682;9.016;2023-09-07T01:36:15;14.30;99.90
3406;DHT22;10008;48.682;9.016;2023-09-07T01:38:40;14.30;99.90
3406;DHT22;10008;48.682;9.016;2023-09-07T01:41:06;14.20;99.90
3406;DHT22;10008;48.682;9.016;2023-09-07T01:43:33;14.20;99.90
3406;DHT22;10008;48.682;9.016;2023-09-07T01:45:59;14.30;99.90
3406;DHT22;10008;48.682;9.016;2023-09-07T01:48:25;14.40;99.90
3406;DHT22;10008;48.682;9.016;2023-09-07T01:50:54;14.40;99.90
3406;DHT22;10008;48.682;9.016;2023-09-07T01:53:20;14.30;99.90
3406;DHT22;10008;48.682;9.016;2023-09-07T01:55:46;14.30;99.90
3406;DHT22;10008;48.682;9.016;2023-09-07T01:58:13;14.20;99.90
3406;DHT22;10008;48.682;9.016;2023-09-07T02:00:39;14.20;99.90
3406;DHT22;10008;48.682;9.016;2023-09-07T02:03:06;14.20;99.90
3406;DHT22;10008;48.682;9.016;2023-09-07T02:05:32;14.20;99.90
3406;DHT22;10008;48.682;9.016;2023-09-07T02:08:00;14.10;99.90
3406;DHT22;10008;48.682;9.016;2023-09-07T02:10:26;14.10;99.90
3406;DHT22;10008;48.682;9.016;2023-09-07T02:12:52;14.10;99.90
3406;DHT22;10008;48.682;9.016;2023-09-07T02:15:17;14.00;99.90
3406;DHT22;10008;48.682;9.016;2023-09-07T02:17:43;14.00;99.90
3406;DHT22;10008;48.682;9.016;2023-09-07T02:20:15;13.90;99.90
3406;DHT22;10008;48.682;9.016;2023-09-07T02:22:40;13.90;99.90
3406;DHT22;10008;48.682;9.016;2023-09-07T02:25:07;13.90;99.90
3406;DHT22;10008;48.682;9.016;2023-09-07T02:27:33;13.90;99.90
3406;DHT22;10008;48.682;9.016;2023-09-07T02:30:00;14.00;99.90
3406;DHT22;10008;48.682;9.016;2023-09-07T02:32:27;13.90;99.90
3406;DHT22;10008;48.682;9.016;2023-09-07T02:34:53;13.90;99.90
3406;DHT22;10008;48.682;9.016;2023-09-07T02:37:19;13.90;99.90
3406;DHT22;10008;48.682;9.016;2023-09-07T02:39:45;13.90;99.90
3406;DHT22;10008;48.682;9.016;2023-09-07T02:42:10;13.90;99.90
3406;DHT22;10008;48.682;9.016;2023-09-07T02:44:37;14.10;99.90
3406;DHT22;10008;48.682;9.016;2023-09-07T02:47:04;14.30;99.90
3406;DHT22;10008;48.682;9.016;2023-09-07T02:49:29;14.20;99.90
3406;DHT22;10008;48.682;9.016;2023-09-07T02:51:55;14.00;99.90
3406;DHT22;10008;48.682;9.016;2023-09-07T02:54:23;13.90;99.90
3406;DHT22;10008;48.682;9.016;2023-09-07T02:56:49;13.90;99.90
3406;DHT22;10008;48.682;9.016;2023-09-07T02:59:15;13.80;99.90
3406;DHT22;10008;48.682;9.016;2023-09-07T03:01:40;13.80;99.90
3406;DHT22;10008;48.682;9.016;2023-09-07T03:04:06;14.00;99.90
3406;DHT22;10008;48.682;9.016;2023-09-07T03:06:33;13.90;99.90
3406;DHT22;10008;48.682;9.016;2023-09-07T03:08:59;14.00;99.90
3406;DHT22;10008;48.682;9.016;2023-09-07T03:11:25;14.10;99.90
3406;DHT22;10008;48.682;9.016;2023-09-07T03:13:51;14.20;99.90
3406;DHT22;10008;48.682;9.016;2023-09-07T03:16:18;14.20;99.90
3406;DHT22;10008;48.682;9.016;2023-09-07T03:18:43;14.20;99.90
3406;DHT22;10008;48.682;9.016;2023-09-07T03:21:10;14.20;99.90
3406;DHT22;10008;48.682;9.016;2023-09-07T03:23:36;14.10;99.90
3406;DHT22;10008;48.682;9.016;2023-09-07T03:26:02;14.10;99.90
3406;DHT22;10008;48.682;9.016;2023-09-07T03:28:28;14.10;99.90
3406;DHT22;10008;48.682;9.016;2023-09-07T03:30:54;14.10;99.90
3406;DHT22;10008;48.682;9.016;2023-09-07T03:33:22;13.90;99.90
3406;DHT22;10008;48.682;9.016;2023-09-07T03:35:48;13.80;99.90
3406;DHT22;10008;48.682;9.016;2023-09-07T03:38:14;13.80;99.90
3406;DHT22;10008;48.682;9.016;2023-09-07T03:40:40;13.70;99.90
3406;DHT22;10008;48.682;9.016;2023-09-07T03:43:06;13.80;99.90
3406;DHT22;10008;48.682;9.016;2023-09-07T03:45:32;13.70;99.90
3406;DHT22;10008;48.682;9.016;2023-09-07T03:47:59;13.70;99.90
3406;DHT22;10008;48.682;9.016;2023-09-07T03:50:25;13.60;99.90
3406;DHT22;10008;48.682;9.016;2023-09-07T03:52:51;13.50;99.90
3406;DHT22;10008;48.682;9.016;2023-09-07T03:55:17;13.60;99.90
3406;DHT22;10008;48.682;9.016;2023-09-07T03:57:42;13.50;99.90
3406;DHT22;10008;48.682;9.016;2023-09-07T04:00:09;13.50;99.90
3406;DHT22;10008;48.682;9.016;2023-09-07T04:02:45;13.70;99.90
3406;DHT22;10008;48.682;9.016;2023-09-07T04:05:11;13.70;99.90
3406;DHT22;10008;48.682;9.016;2023-09-07T04:07:37;13.70;99.90
3406;DHT22;10008;48.682;9.016;2023-09-07T04:10:07;13.70;99.90
3406;DHT22;10008;48.682;9.016;2023-09-07T04:12:32;13.70;99.90
3406;DHT22;10008;48.682;9.016;2023-09-07T04:15:01;13.70;99.90
3406;DHT22;10008;48.682;9.016;2023-09-07T04:17:27;13.70;99.90
3406;DHT22;10008;48.682;9.016;2023-09-07T04:19:53;13.70;99.90
3406;DHT22;10008;48.682;9.016;2023-09-07T04:22:19;13.70;99.90
3406;DHT22;10008;48.682;9.016;2023-09-07T04:24:47;13.70;99.90
3406;DHT22;10008;48.682;9.016;2023-09-07T04:27:14;13.50;99.90
3406;DHT22;10008;48.682;9.016;2023-09-07T04:29:40;13.40;99.90
3406;DHT22;10008;48.682;9.016;2023-09-07T04:32:06;13.30;99.90
3406;DHT22;10008;48.682;9.016;2023-09-07T04:34:32;13.20;99.90
3406;DHT22;10008;48.682;9.016;2023-09-07T04:36:57;13.10;99.90
3406;DHT22;10008;48.682;9.016;2023-09-07T04:39:23;13.00;99.90
3406;DHT22;10008;48.682;9.016;2023-09-07T04:41:49;12.90;99.90
3406;DHT22;10008;48.682;9.016;2023-09-07T04:44:15;12.80;99.90
3406;DHT22;10008;48.682;9.016;2023-09-07T04:46:41;12.80;99.90
3406;DHT22;10008;48.682;9.016;2023-09-07T04:49:07;12.80;99.90
3406;DHT22;10008;48.682;9.016;2023-09-07T04:51:33;12.80;99.90
3406;DHT22;10008;48.682;9.016;2023-09-07T04:53:59;12.80;99.90
3406;DHT22;10008;48.682;9.016;2023-09-07T04:56:24;12.80;99.90
3406;DHT22;10008;48.682;9.016;2023-09-07T04:58:51;13.00;99.90
3406;DHT22;10008;48.682;9.016;2023-09-07T05:01:17;13.10;99.90
3406;DHT22;10008;48.682;9.016;2023-09-07T05:03:43;13.10;99.90
3406;DHT22;10008;48.682;9.016;2023-09-07T05:06:11;13.00;99.90
3406;DHT22;10008;48.682;9.016;2023-09-07T05:08:37;12.90;99.90
3406;DHT22;10008;48.682;9.016;2023-09-07T05:11:03;12.90;99.90
3406;DHT22;10008;48.682;9.016;2023-09-07T05:13:30;12.90;99.90
3406;DHT22;10008;48.682;9.016;2023-09-07T05:15:58;12.90;99.90
3406;DHT22;10008;48.682;9.016;2023-09-07T05:18:25;13.00;99.90
3406;DHT22;10008;48.682;9.016;2023-09-07T05:20:50;13.10;99.90
3406;DHT22;10008;48.682;9.016;2023-09-07T05:23:18;13.20;99.90
3406;DHT22;10008;48.682;9.016;2023-09-07T05:25:47;13.20;99.90
3406;DHT22;10008;48.682;9.016;2023-09-07T05:28:13;13.40;99.90
3406;DHT22;10008;48.682;9.016;2023-09-07T05:30:40;14.30;99.90
3406;DHT22;10008;48.682;9.016;2023-09-07T05:33:08;15.40;99.90
3406;DHT22;10008;48.682;9.016;2023-09-07T05:35:34;16.60;99.90
3406;DHT22;10008;48.682;9.016;2023-09-07T05:38:00;17.70;99.90
3406;DHT22;10008;48.682;9.016;2023-09-07T05:40:26;18.80;99.90
3406;DHT22;10008;48.682;9.016;2023-09-07T05:42:52;19.90;99.90
3406;DHT22;10008;48.682;9.016;2023-09-07T05:45:18;20.40;99.90
3406;DHT22;10008;48.682;9.016;2023-09-07T05:47:44;20.90;99.90
3406;DHT22;10008;48.682;9.016;2023-09-07T05:50:10;21.50;99.90
3406;DHT22;10008;48.682;9.016;2023-09-07T05:52:36;22.00;99.90
3406;DHT22;10008;48.682;9.016;2023-09-07T05:55:02;23.10;99.90
3406;DHT22;10008;48.682;9.016;2023-09-07T05:57:28;23.40;98.90
3406;DHT22;10008;48.682;9.016;2023-09-07T05:59:54;23.40;98.00
3406;DHT22;10008;48.682;9.016;2023-09-07T06:02:19;23.70;97.60
3406;DHT22;10008;48.682;9.016;2023-09-07T06:04:45;24.70;97.50
3406;DHT22;10008;48.682;9.016;2023-09-07T06:07:11;25.70;96.70
3406;DHT22;10008;48.682;9.016;2023-09-07T06:09:37;26.50;96.30
3406;DHT22;10008;48.682;9.016;2023-09-07T06:12:03;27.20;94.10
3406;DHT22;10008;48.682;9.016;2023-09-07T06:14:29;27.60;91.50
3406;DHT22;10008;48.682;9.016;2023-09-07T06:16:55;28.10;91.60
3406;DHT22;10008;48.682;9.016;2023-09-07T06:19:21;28.50;90.90
3406;DHT22;10008;48.682;9.016;2023-09-07T06:21:47;28.80;90.20
3406;DHT22;10008;48.682;9.016;2023-09-07T06:24:13;29.20;89.40
3406;DHT22;10008;48.682;9.016;2023-09-07T06:26:40;29.60;86.80
3406;DHT22;10008;48.682;9.016;2023-09-07T06:29:06;30.10;86.20
3406;DHT22;10008;48.682;9.016;2023-09-07T06:31:32;30.50;83.10
3406;DHT22;10008;48.682;9.016;2023-09-07T06:33:57;30.80;81.60
3406;DHT22;10008;48.682;9.016;2023-09-07T06:36:24;31.30;80.20
3406;DHT22;10008;48.682;9.016;2023-09-07T06:38:50;31.60;78.20
3406;DHT22;10008;48.682;9.016;2023-09-07T06:41:15;31.80;77.10
3406;DHT22;10008;48.682;9.016;2023-09-07T06:43:41;31.90;76.40
3406;DHT22;10008;48.682;9.016;2023-09-07T06:46:09;32.00;76.40
3406;DHT22;10008;48.682;9.016;2023-09-07T06:48:35;32.10;73.00
3406;DHT22;10008;48.682;9.016;2023-09-07T06:51:05;32.40;75.00
3406;DHT22;10008;48.682;9.016;2023-09-07T06:53:32;32.60;72.60
3406;DHT22;10008;48.682;9.016;2023-09-07T06:55:59;32.50;70.10
3406;DHT22;10008;48.682;9.016;2023-09-07T06:58:25;31.50;71.30
3406;DHT22;10008;48.682;9.016;2023-09-07T07:00:51;31.10;72.40
3406;DHT22;10008;48.682;9.016;2023-09-07T07:03:17;31.00;73.50
3406;DHT22;10008;48.682;9.016;2023-09-07T07:05:42;31.80;75.10
3406;DHT22;10008;48.682;9.016;2023-09-07T07:08:09;32.10;73.80
3406;DHT22;10008;48.682;9.016;2023-09-07T07:10:35;32.50;72.60
3406;DHT22;10008;48.682;9.016;2023-09-07T07:13:01;32.90;70.60
3406;DHT22;10008;48.682;9.016;2023-09-07T07:15:27;33.10;70.30
3406;DHT22;10008;48.682;9.016;2023-09-07T07:17:53;32.80;69.80
3406;DHT22;10008;48.682;9.016;2023-09-07T07:20:19;31.60;71.00
3406;DHT22;10008;48.682;9.016;2023-09-07T07:22:45;31.60;72.50
3406;DHT22;10008;48.682;9.016;2023-09-07T07:25:13;31.30;71.80
3406;DHT22;10008;48.682;9.016;2023-09-07T07:27:39;31.50;73.90
3406;DHT22;10008;48.682;9.016;2023-09-07T07:30:05;31.00;71.30
3406;DHT22;10008;48.682;9.016;2023-09-07T07:32:31;30.90;74.00
3406;DHT22;10008;48.682;9.016;2023-09-07T07:34:57;31.70;71.30
3406;DHT22;10008;48.682;9.016;2023-09-07T07:37:23;31.70;70.10
3406;DHT22;10008;48.682;9.016;2023-09-07T07:39:50;31.70;71.00
3406;DHT22;10008;48.682;9.016;2023-09-07T07:42:16;31.40;70.60
3406;DHT22;10008;48.682;9.016;2023-09-07T07:44:44;31.50;71.10
3406;DHT22;10008;48.682;9.016;2023-09-07T07:47:10;31.40;70.90
3406;DHT22;10008;48.682;9.016;2023-09-07T07:49:36;31.70;71.00
3406;DHT22;10008;48.682;9.016;2023-09-07T07:52:02;32.00;69.50
3406;DHT22;10008;48.682;9.016;2023-09-07T07:54:28;32.00;69.60
3406;DHT22;10008;48.682;9.016;2023-09-07T07:56:55;32.40;68.60
3406;DHT22;10008;48.682;9.016;2023-09-07T07:59:22;32.20;68.50
3406;DHT22;10008;48.682;9.016;2023-09-07T08:01:48;32.30;69.70
3406;DHT22;10008;48.682;9.016;2023-09-07T08:04:13;32.70;68.00
3406;DHT22;10008;48.682;9.016;2023-09-07T08:06:39;33.20;67.10
3406;DHT22;10008;48.682;9.016;2023-09-07T08:09:05;32.90;69.80
3406;DHT22;10008;48.682;9.016;2023-09-07T08:11:31;33.30;67.90
3406;DHT22;10008;48.682;9.016;2023-09-07T08:13:57;33.40;67.90
3406;DHT22;10008;48.682;9.016;2023-09-07T08:16:23;33.40;67.20
3406;DHT22;10008;48.682;9.016;2023-09-07T08:18:49;33.50;66.50
3406;DHT22;10008;48.682;9.016;2023-09-07T08:21:16;32.70;67.40
3406;DHT22;10008;48.682;9.016;2023-09-07T08:23:44;32.40;67.00
3406;DHT22;10008;48.682;9.016;2023-09-07T08:26:10;32.60;67.20
3406;DHT22;10008;48.682;9.016;2023-09-07T08:28:37;33.10;66.30
3406;DHT22;10008;48.682;9.016;2023-09-07T08:33:31;32.80;66.20
3406;DHT22;10008;48.682;9.016;2023-09-07T08:35:58;33.10;66.70
3406;DHT22;10008;48.682;9.016;2023-09-07T08:38:26;33.30;65.70
3406;DHT22;10008;48.682;9.016;2023-09-07T08:40:54;33.50;66.70
3406;DHT22;10008;48.682;9.016;2023-09-07T08:43:21;33.60;66.50
3406;DHT22;10008;48.682;9.016;2023-09-07T08:45:51;33.00;67.50
3406;DHT22;10008;48.682;9.016;2023-09-07T08:48:19;32.40;68.30
3406;DHT22;10008;48.682;9.016;2023-09-07T08:50:46;31.70;68.60
3406;DHT22;10008;48.682;9.016;2023-09-07T08:53:19;31.80;69.70
3406;DHT22;10008;48.682;9.016;2023-09-07T08:55:45;31.80;70.30
3406;DHT22;10008;48.682;9.016;2023-09-07T08:58:11;31.50;69.70
3406;DHT22;10008;48.682;9.016;2023-09-07T09:00:37;31.00;72.10
3406;DHT22;10008;48.682;9.016;2023-09-07T09:03:04;31.00;71.80
3406;DHT22;10008;48.682;9.016;2023-09-07T09:05:30;31.40;70.90
3406;DHT22;10008;48.682;9.016;2023-09-07T09:08:06;31.40;71.50
3406;DHT22;10008;48.682;9.016;2023-09-07T09:10:32;32.00;70.10
3406;DHT22;10008;48.682;9.016;2023-09-07T09:12:58;32.50;68.60
3406;DHT22;10008;48.682;9.016;2023-09-07T09:15:26;32.80;68.30
3406;DHT22;10008;48.682;9.016;2023-09-07T09:17:53;32.80;68.00
3406;DHT22;10008;48.682;9.016;2023-09-07T09:20:23;33.10;67.80
3406;DHT22;10008;48.682;9.016;2023-09-07T09:22:53;33.60;66.90
3406;DHT22;10008;48.682;9.016;2023-09-07T09:25:20;33.40;66.10
3406;DHT22;10008;48.682;9.016;2023-09-07T09:27:47;33.20;65.50
3406;DHT22;10008;48.682;9.016;2023-09-07T09:30:13;32.80;67.10
3406;DHT22;10008;48.682;9.016;2023-09-07T09:32:42;33.00;66.90
3406;DHT22;10008;48.682;9.016;2023-09-07T09:35:08;33.40;66.80
3406;DHT22;10008;48.682;9.016;2023-09-07T09:37:46;33.50;66.70
3406;DHT22;10008;48.682;9.016;2023-09-07T09:40:13;33.70;67.40
3406;DHT22;10008;48.682;9.016;2023-09-07T09:42:41;33.90;64.70
3406;DHT22;10008;48.682;9.016;2023-09-07T09:45:09;33.80;66.80
3406;DHT22;10008;48.682;9.016;2023-09-07T09:47:40;34.30;65.60
3406;DHT22;10008;48.682;9.016;2023-09-07T09:50:07;33.90;67.00
3406;DHT22;10008;48.682;9.016;2023-09-07T09:52:34;33.50;66.60
3406;DHT22;10008;48.682;9.016;2023-09-07T09:55:03;33.30;68.70
3406;DHT22;10008;48.682;9.016;2023-09-07T09:57:31;33.40;67.70
3406;DHT22;10008;48.682;9.016;2023-09-07T09:59:59;33.50;68.90
3406;DHT22;10008;48.682;9.016;2023-09-07T10:02:25;32.90;67.50
3406;DHT22;10008;48.682;9.016;2023-09-07T10:04:52;32.80;68.00
3406;DHT22;10008;48.682;9.016;2023-09-07T10:07:19;33.00;68.00
3406;DHT22;10008;48.682;9.016;2023-09-07T10:09:45;33.20;66.50
3406;DHT22;10008;48.682;9.016;2023-09-07T10:12:13;33.80;67.40
3406;DHT22;10008;48.682;9.016;2023-09-07T10:14:43;35.00;66.30
3406;DHT22;10008;48.682;9.016;2023-09-07T10:17:22;35.40;62.90
3406;DHT22;10008;48.682;9.016;2023-09-07T10:19:47;35.30;62.50
3406;DHT22;10008;48.682;9.016;2023-09-07T10:22:23;36.10;63.50
3406;DHT22;10008;48.682;9.016;2023-09-07T10:24:57;36.50;60.60
3406;DHT22;10008;48.682;9.016;2023-09-07T10:27:23;36.10;60.60
3406;DHT22;10008;48.682;9.016;2023-09-07T10:29:52;36.10;60.90
3406;DHT22;10008;48.682;9.016;2023-09-07T10:32:18;36.10;61.10
3406;DHT22;10008;48.682;9.016;2023-09-07T10:34:43;36.20;59.00
3406;DHT22;10008;48.682;9.016;2023-09-07T10:37:13;35.90;59.40
3406;DHT22;10008;48.682;9.016;2023-09-07T10:39:41;36.40;59.50
3406;DHT22;10008;48.682;9.016;2023-09-07T10:42:25;36.90;60.50
3406;DHT22;10008;48.682;9.016;2023-09-07T10:44:51;37.10;58.20
3406;DHT22;10008;48.682;9.016;2023-09-07T10:47:17;37.10;60.00
3406;DHT22;10008;48.682;9.016;2023-09-07T10:49:43;36.90;57.90
3406;DHT22;10008;48.682;9.016;2023-09-07T10:52:09;37.00;59.70
3406;DHT22;10008;48.682;9.016;2023-09-07T10:54:35;37.40;57.20
3406;DHT22;10008;48.682;9.016;2023-09-07T10:57:11;37.30;57.70
3406;DHT22;10008;48.682;9.016;2023-09-07T10:59:43;37.00;57.50
3406;DHT22;10008;48.682;9.016;2023-09-07T11:02:09;36.70;57.90
3406;DHT22;10008;48.682;9.016;2023-09-07T11:04:35;36.70;58.50
3406;DHT22;10008;48.682;9.016;2023-09-07T11:07:01;37.50;60.90
3406;DHT22;10008;48.682;9.016;2023-09-07T11:09:30;38.10;58.40
3406;DHT22;10008;48.682;9.016;2023-09-07T11:11:55;38.10;58.20
3406;DHT22;10008;48.682;9.016;2023-09-07T11:14:21;37.70;58.90
3406;DHT22;10008;48.682;9.016;2023-09-07T11:16:47;37.50;59.00
3406;DHT22;10008;48.682;9.016;2023-09-07T11:19:14;37.40;59.70
3406;DHT22;10008;48.682;9.016;2023-09-07T11:21:40;37.20;57.80
3406;DHT22;10008;48.682;9.016;2023-09-07T11:24:07;37.70;58.90
3406;DHT22;10008;48.682;9.016;2023-09-07T11:26:47;38.30;56.20
3406;DHT22;10008;48.682;9.016;2023-09-07T11:29:17;38.00;55.70
3406;DHT22;10008;48.682;9.016;2023-09-07T11:31:47;37.50;55.90
3406;DHT22;10008;48.682;9.016;2023-09-07T11:34:14;37.60;56.50
3406;DHT22;10008;48.682;9.016;2023-09-07T11:36:40;37.70;56.70
3406;DHT22;10008;48.682;9.016;2023-09-07T11:39:07;37.40;56.30
3406;DHT22;10008;48.682;9.016;2023-09-07T11:41:42;36.70;59.00
3406;DHT22;10008;48.682;9.016;2023-09-07T11:44:08;37.40;57.10
3406;DHT22;10008;48.682;9.016;2023-09-07T11:46:34;38.10;56.60
3406;DHT22;10008;48.682;9.016;2023-09-07T11:49:11;38.50;55.00
3406;DHT22;10008;48.682;9.016;2023-09-07T11:51:37;38.60;54.60
3406;DHT22;10008;48.682;9.016;2023-09-07T11:54:03;38.20;54.20
3406;DHT22;10008;48.682;9.016;2023-09-07T11:56:30;38.00;54.90
3406;DHT22;10008;48.682;9.016;2023-09-07T11:58:56;37.20;56.00
3406;DHT22;10008;48.682;9.016;2023-09-07T12:01:21;37.10;56.30
3406;DHT22;10008;48.682;9.016;2023-09-07T12:03:47;37.00;56.90
3406;DHT22;10008;48.682;9.016;2023-09-07T12:06:13;37.20;56.80
3406;DHT22;10008;48.682;9.016;2023-09-07T12:08:42;37.00;56.70
3406;DHT22;10008;48.682;9.016;2023-09-07T12:11:08;37.20;57.10
3406;DHT22;10008;48.682;9.016;2023-09-07T12:13:34;37.60;56.00
3406;DHT22;10008;48.682;9.016;2023-09-07T12:16:00;37.70;54.90
3406;DHT22;10008;48.682;9.016;2023-09-07T12:18:27;37.40;55.60
3406;DHT22;10008;48.682;9.016;2023-09-07T12:20:53;37.40;55.90
3406;DHT22;10008;48.682;9.016;2023-09-07T12:23:19;37.50;55.40
3406;DHT22;10008;48.682;9.016;2023-09-07T12:25:45;37.20;56.40
3406;DHT22;10008;48.682;9.016;2023-09-07T12:28:16;37.60;57.10
3406;DHT22;10008;48.682;9.016;2023-09-07T12:30:41;37.70;55.80
3406;DHT22;10008;48.682;9.016;2023-09-07T12:33:10;37.60;55.50
3406;DHT22;10008;48.682;9.016;2023-09-07T12:35:36;37.30;55.80
3406;DHT22;10008;48.682;9.016;2023-09-07T12:38:01;36.80;55.60
3406;DHT22;10008;48.682;9.016;2023-09-07T12:40:28;36.40;57.10
3406;DHT22;10008;48.682;9.016;2023-09-07T12:42:54;36.60;57.10
3406;DHT22;10008;48.682;9.016;2023-09-07T12:45:20;36.90;55.90
3406;DHT22;10008;48.682;9.016;2023-09-07T12:47:45;36.70;57.90
3406;DHT22;10008;48.682;9.016;2023-09-07T12:50:11;36.80;56.90
3406;DHT22;10008;48.682;9.016;2023-09-07T12:52:37;36.50;56.80
3406;DHT22;10008;48.682;9.016;2023-09-07T12:55:05;36.60;57.00
3406;DHT22;10008;48.682;9.016;2023-09-07T12:57:31;36.40;57.20
3406;DHT22;10008;48.682;9.016;2023-09-07T12:59:57;36.10;56.40
3406;DHT22;10008;48.682;9.016;2023-09-07T13:02:22;35.70;56.70
3406;DHT22;10008;48.682;9.016;2023-09-07T13:04:48;35.10;56.90
3406;DHT22;10008;48.682;9.016;2023-09-07T13:07:14;35.20;59.80
3406;DHT22;10008;48.682;9.016;2023-09-07T13:09:42;35.90;57.00
3406;DHT22;10008;48.682;9.016;2023-09-07T13:12:08;36.00;56.40
3406;DHT22;10008;48.682;9.016;2023-09-07T13:14:33;36.00;57.80
3406;DHT22;10008;48.682;9.016;2023-09-07T13:16:59;36.60;55.70
3406;DHT22;10008;48.682;9.016;2023-09-07T13:19:25;36.50;56.90
3406;DHT22;10008;48.682;9.016;2023-09-07T13:21:51;36.80;55.70
3406;DHT22;10008;48.682;9.016;2023-09-07T13:24:16;36.80;54.70
3406;DHT22;10008;48.682;9.016;2023-09-07T13:26:46;36.70;54.60
3406;DHT22;10008;48.682;9.016;2023-09-07T13:29:12;36.80;54.60
3406;DHT22;10008;48.682;9.016;2023-09-07T13:31:38;36.70;54.00
3406;DHT22;10008;48.682;9.016;2023-09-07T13:34:04;36.20;54.50
3406;DHT22;10008;48.682;9.016;2023-09-07T13:36:30;35.90;55.10
3406;DHT22;10008;48.682;9.016;2023-09-07T13:38:56;35.70;55.70
3406;DHT22;10008;48.682;9.016;2023-09-07T13:41:23;35.50;56.30
3406;DHT22;10008;48.682;9.016;2023-09-07T13:43:48;35.30;56.60
3406;DHT22;10008;48.682;9.016;2023-09-07T13:46:14;35.30;56.90
3406;DHT22;10008;48.682;9.016;2023-09-07T13:48:40;35.40;57.40
3406;DHT22;10008;48.682;9.016;2023-09-07T13:51:05;35.60;57.10
3406;DHT22;10008;48.682;9.016;2023-09-07T13:53:32;35.80;56.00
3406;DHT22;10008;48.682;9.016;2023-09-07T13:55:58;35.70;56.20
3406;DHT22;10008;48.682;9.016;2023-09-07T13:58:24;35.70;56.10
3406;DHT22;10008;48.682;9.016;2023-09-07T14:00:50;35.70;56.70
3406;DHT22;10008;48.682;9.016;2023-09-07T14:03:16;35.60;56.20
3406;DHT22;10008;48.682;9.016;2023-09-07T14:05:42;35.20;57.30
3406;DHT22;10008;48.682;9.016;2023-09-07T14:08:08;35.10;57.40
3406;DHT22;10008;48.682;9.016;2023-09-07T14:10:33;35.10;57.40
3406;DHT22;10008;48.682;9.016;2023-09-07T14:12:59;34.80;59.20
3406;DHT22;10008;48.682;9.016;2023-09-07T14:15:25;34.80;57.60
3406;DHT22;10008;48.682;9.016;2023-09-07T14:17:51;34.80;57.40
3406;DHT22;10008;48.682;9.016;2023-09-07T14:20:16;34.60;58.20
3406;DHT22;10008;48.682;9.016;2023-09-07T14:22:42;34.50;58.80
3406;DHT22;10008;48.682;9.016;2023-09-07T14:25:08;34.50;58.70
3406;DHT22;10008;48.682;9.016;2023-09-07T14:27:33;34.30;59.00
3406;DHT22;10008;48.682;9.016;2023-09-07T14:29:59;33.90;60.50
3406;DHT22;10008;48.682;9.016;2023-09-07T14:32:25;33.80;60.20
3406;DHT22;10008;48.682;9.016;2023-09-07T14:34:51;33.90;59.80
3406;DHT22;10008;48.682;9.016;2023-09-07T14:37:16;33.70;59.40
3406;DHT22;10008;48.682;9.016;2023-09-07T14:39:42;33.60;60.10
3406;DHT22;10008;48.682;9.016;2023-09-07T14:42:13;33.30;64.60
3406;DHT22;10008;48.682;9.016;2023-09-07T14:44:42;33.00;62.10
3406;DHT22;10008;48.682;9.016;2023-09-07T14:47:08;32.90;62.50
3406;DHT22;10008;48.682;9.016;2023-09-07T14:49:36;32.90;63.20
3406;DHT22;10008;48.682;9.016;2023-09-07T14:52:01;33.00;62.90
3406;DHT22;10008;48.682;9.016;2023-09-07T14:54:27;33.10;63.00
3406;DHT22;10008;48.682;9.016;2023-09-07T14:56:53;32.90;63.10
3406;DHT22;10008;48.682;9.016;2023-09-07T14:59:18;33.00;63.10
3406;DHT22;10008;48.682;9.016;2023-09-07T15:01:44;32.90;64.30
3406;DHT22;10008;48.682;9.016;2023-09-07T15:04:10;32.90;62.80
3406;DHT22;10008;48.682;9.016;2023-09-07T15:06:36;32.60;63.40
3406;DHT22;10008;48.682;9.016;2023-09-07T15:09:02;32.40;62.80
3406;DHT22;10008;48.682;9.016;2023-09-07T15:11:29;32.30;64.40
3406;DHT22;10008;48.682;9.016;2023-09-07T15:13:56;32.20;63.70
3406;DHT22;10008;48.682;9.016;2023-09-07T15:16:21;32.10;65.60
3406;DHT22;10008;48.682;9.016;2023-09-07T15:18:49;31.90;65.00
3406;DHT22;10008;48.682;9.016;2023-09-07T15:21:17;31.80;65.90
3406;DHT22;10008;48.682;9.016;2023-09-07T15:23:43;31.80;66.00
3406;DHT22;10008;48.682;9.016;2023-09-07T15:26:09;31.80;66.00
3406;DHT22;10008;48.682;9.016;2023-09-07T15:28:37;31.70;66.30
3406;DHT22;10008;48.682;9.016;2023-09-07T15:31:04;31.60;67.10
3406;DHT22;10008;48.682;9.016;2023-09-07T15:33:30;31.50;70.90
3406;DHT22;10008;48.682;9.016;2023-09-07T15:35:56;31.40;66.90
3406;DHT22;10008;48.682;9.016;2023-09-07T15:38:21;31.20;67.30
3406;DHT22;10008;48.682;9.016;2023-09-07T15:40:49;31.00;67.60
3406;DHT22;10008;48.682;9.016;2023-09-07T15:43:14;30.90;64.80